Time;durP1;ratioP1;P1;durP2;ratioP2;P2;SDS_P1;SDS_P2;PMS_P1;PMS_P2;Temp;Humidity;BMP_temperature;BMP_pressure;BME280_temperature;BME280_humidity;BME280_pressure;Samples;Min_cycle;Max_cycle;Signal;HPM_P1;HPM_P2
2023/01/17 00:01:24;;;;;;;15.65;4.22;;;;;;;1.21;100.00;98258.50;5048834;28;20103;-77
2023/01/17 00:12:02;;;;;;;15.35;4.40;;;;;;;1.06;100.00;98263.66;5050024;28;20492;-88
2023/01/17 00:14:27;;;;;;;13.10;3.53;;;;;;;1.13;100.00;98274.06;5052224;28;20182;-87
2023/01/17 00:16:53;;;;;;;13.18;3.83;;;;;;;1.12;100.00;98272.38;5051934;28;20108;-76
2023/01/17 01:33:58;;;;;;;14.95;5.18;;;;;;;0.03;100.00;98394.06;5051931;28;20078;-74
2023/01/17 01:36:23;;;;;;;14.25;5.85;;;;;;;-0.08;100.00;98392.25;5054246;28;20112;-74
2023/01/17 01:38:49;;;;;;;16.88;6.03;;;;;;;-0.14;100.00;98397.41;5054528;28;20118;-74
2023/01/17 01:41:15;;;;;;;16.23;6.10;;;;;;;-0.18;100.00;98406.03;5054261;28;20505;-74
2023/01/17 01:43:49;;;;;;;17.15;6.95;;;;;;;-0.27;100.00;98408.56;5054098;28;20037;-74
2023/01/17 01:46:25;;;;;;;20.50;7.35;;;;;;;-0.32;100.00;98428.41;5053758;28;20033;-73
2023/01/17 01:48:53;;;;;;;18.48;8.77;;;;;;;-0.38;100.00;98419.72;5050405;28;20025;-74
2023/01/17 01:51:24;;;;;;;20.23;9.23;;;;;;;-0.40;100.00;98436.97;5050183;28;20029;-75
2023/01/17 01:53:53;;;;;;;19.73;9.25;;;;;;;-0.42;100.00;98441.28;5050042;28;20554;-74
2023/01/17 01:56:22;;;;;;;20.42;9.70;;;;;;;-0.40;100.00;98444.75;5050028;28;20021;-74
2023/01/17 01:58:50;;;;;;;19.70;9.27;;;;;;;-0.31;100.00;98453.50;5053817;28;20029;-75
2023/01/17 02:01:16;;;;;;;19.35;8.80;;;;;;;-0.22;100.00;98443.22;5053719;28;20033;-74
2023/01/17 02:03:43;;;;;;;20.52;9.38;;;;;;;-0.18;100.00;98443.25;5053965;28;20385;-73
2023/01/17 02:06:33;;;;;;;20.33;9.27;;;;;;;-0.09;100.00;98449.38;5053665;28;20100;-73
2023/01/17 02:09:02;;;;;;;20.50;8.80;;;;;;;-0.09;100.00;98445.06;5050875;28;20032;-73
2023/01/17 02:11:28;;;;;;;20.88;9.10;;;;;;;-0.03;100.00;98447.72;5053475;28;20036;-73
2023/01/17 02:13:53;;;;;;;19.10;8.32;;;;;;;-0.01;100.00;98451.19;5053836;28;20492;-73
2023/01/17 02:16:42;;;;;;;20.25;8.30;;;;;;;0.06;100.00;98459.03;5053665;28;20048;-74
2023/01/17 02:19:35;;;;;;;20.58;7.78;;;;;;;0.10;100.00;98463.41;5052077;28;20031;-73
2023/01/17 02:22:44;;;;;;;19.42;7.28;;;;;;;0.17;100.00;98479.09;5051244;28;20060;-73
2023/01/17 02:25:31;;;;;;;19.23;5.75;;;;;;;0.13;100.00;98473.81;5051972;28;20365;-73
2023/01/17 02:28:18;;;;;;;17.70;4.97;;;;;;;0.19;100.00;98481.69;5050260;28;20033;-73
2023/01/17 02:31:12;;;;;;;15.82;4.50;;;;;;;-0.10;100.00;98494.38;5053217;28;20037;-74
2023/01/17 02:33:50;;;;;;;15.30;3.95;;;;;;;-0.36;100.00;98493.28;5051501;28;20039;-73
2023/01/17 02:36:29;;;;;;;16.05;4.00;;;;;;;-0.59;100.00;98487.84;5052948;28;20033;-72
2023/01/17 02:39:18;;;;;;;14.60;3.50;;;;;;;-0.62;100.00;98485.19;5031782;28;20041;-72
2023/01/17 02:41:48;;;;;;;13.02;3.20;;;;;;;-0.59;100.00;98484.38;5035081;28;20511;-73
2023/01/17 02:44:19;;;;;;;12.63;3.10;;;;;;;-0.58;100.00;98467.97;5052969;28;20032;-73
2023/01/17 02:46:56;;;;;;;13.95;2.90;;;;;;;-0.60;100.00;98460.13;5053364;28;20377;-73
2023/01/17 02:49:27;;;;;;;11.27;2.60;;;;;;;-0.63;100.00;98469.63;5049324;28;20469;-73
2023/01/17 02:52:20;;;;;;;12.25;2.63;;;;;;;-0.69;100.00;98474.75;5049048;28;20451;-74
2023/01/17 02:55:05;;;;;;;12.18;2.42;;;;;;;-0.72;100.00;98476.44;5052253;28;20052;-85
2023/01/17 02:57:30;;;;;;;9.65;2.33;;;;;;;-0.73;100.00;98473.81;5049308;28;20060;-73
2023/01/17 03:00:13;;;;;;;8.70;2.30;;;;;;;-0.72;100.00;98478.16;5052672;28;20452;-74
2023/01/17 03:03:09;;;;;;;10.05;2.30;;;;;;;-0.81;100.00;98483.25;5052602;28;20031;-74
2023/01/17 03:06:13;;;;;;;8.20;2.10;;;;;;;-0.84;100.00;98494.47;5050625;28;20033;-73
2023/01/17 03:08:43;;;;;;;11.32;2.50;;;;;;;-0.96;100.00;98502.97;5039166;28;20562;-74
2023/01/17 03:11:09;;;;;;;12.70;2.10;;;;;;;-1.07;100.00;98505.38;5052316;28;20048;-73
2023/01/17 03:13:35;;;;;;;11.25;2.13;;;;;;;-1.14;100.00;98502.69;5052523;28;20119;-81
2023/01/17 03:16:05;;;;;;;8.70;2.20;;;;;;;-1.18;100.00;98506.09;5052649;28;20108;-79
2023/01/17 03:18:31;;;;;;;10.00;2.30;;;;;;;-1.19;100.00;98510.41;5052788;28;20475;-86
2023/01/17 03:20:56;;;;;;;12.90;2.40;;;;;;;-1.14;100.00;98507.88;5052343;28;20025;-87
2023/01/17 03:23:22;;;;;;;9.57;2.53;;;;;;;-1.18;100.00;98517.34;5052626;28;20025;-79
2023/01/17 03:25:47;;;;;;;8.50;2.50;;;;;;;-1.19;100.00;98505.22;5052646;28;20111;-77
2023/01/17 03:28:12;;;;;;;12.00;2.67;;;;;;;-1.16;100.00;98514.78;5052287;28;20032;-73
2023/01/17 03:30:38;;;;;;;12.02;2.92;;;;;;;-1.23;100.00;98513.81;5052541;28;20048;-75
2023/01/17 03:33:03;;;;;;;12.70;2.90;;;;;;;-1.27;100.00;98519.78;5052427;28;20071;-72
2023/01/17 03:35:28;;;;;;;12.80;2.78;;;;;;;-1.31;100.00;98520.59;5052427;28;20472;-73
2023/01/17 03:37:55;;;;;;;13.18;3.10;;;;;;;-1.34;100.00;98523.16;5052562;28;20087;-73
2023/01/17 03:40:20;;;;;;;14.75;3.15;;;;;;;-1.35;100.00;98513.66;5048191;28;20427;-73
2023/01/17 03:42:46;;;;;;;12.48;2.92;;;;;;;-1.30;100.00;98514.56;5052354;28;20033;-73
2023/01/17 03:45:11;;;;;;;14.77;3.50;;;;;;;-1.27;100.00;98514.63;5052190;28;20029;-73
2023/01/17 03:47:36;;;;;;;12.90;3.08;;;;;;;-1.23;100.00;98522.44;5052177;28;20032;-73
2023/01/17 03:50:02;;;;;;;15.50;3.30;;;;;;;-1.23;100.00;98519.84;5052348;28;20029;-73
2023/01/17 03:52:28;;;;;;;14.75;3.63;;;;;;;-1.20;100.00;98521.63;5052125;28;20086;-73
2023/01/17 03:54:53;;;;;;;15.07;3.47;;;;;;;-1.18;100.00;98519.94;5052211;28;20037;-73
2023/01/17 03:57:18;;;;;;;15.95;3.67;;;;;;;-1.23;100.00;98516.41;5052219;28;20033;-73
2023/01/17 03:59:44;;;;;;;16.02;3.80;;;;;;;-1.25;100.00;98516.38;5052060;28;20032;-73
2023/01/17 04:02:10;;;;;;;16.77;3.78;;;;;;;-1.20;100.00;98518.19;5051886;28;20087;-73
2023/01/17 04:04:35;;;;;;;15.90;3.92;;;;;;;-1.23;100.00;98513.81;5052246;28;20029;-73
2023/01/17 04:07:00;;;;;;;17.10;4.30;;;;;;;-1.22;100.00;98518.16;5051932;28;20022;-73
2023/01/17 04:09:26;;;;;;;16.98;4.38;;;;;;;-1.22;100.00;98531.13;5054632;28;20053;-73
2023/01/17 04:11:52;;;;;;;20.45;5.07;;;;;;;-1.20;100.00;98533.75;5056258;28;20486;-74
2023/01/17 04:14:17;;;;;;;20.95;5.03;;;;;;;-1.19;100.00;98523.38;5055773;28;20440;-74
2023/01/17 04:16:43;;;;;;;19.27;5.05;;;;;;;-1.22;100.00;98520.75;5056222;28;20353;-74
2023/01/17 04:19:12;;;;;;;18.88;4.78;;;;;;;-1.19;100.00;98525.09;5055632;28;20563;-73
2023/01/17 04:21:37;;;;;;;20.23;5.35;;;;;;;-1.26;100.00;98522.41;5055568;28;20040;-73
2023/01/17 04:24:03;;;;;;;19.83;5.45;;;;;;;-1.26;100.00;98526.75;5055959;28;20037;-73
2023/01/17 04:26:28;;;;;;;19.88;5.22;;;;;;;-1.27;100.00;98522.38;5055722;28;20031;-73
2023/01/17 04:28:53;;;;;;;20.30;5.25;;;;;;;-1.30;100.00;98518.03;5055599;28;20108;-74
2023/01/17 04:31:19;;;;;;;20.17;5.22;;;;;;;-1.31;100.00;98515.41;5037743;28;20065;-75
2023/01/17 04:33:44;;;;;;;20.02;5.30;;;;;;;-1.33;100.00;98512.81;5055487;28;20040;-73
2023/01/17 04:36:09;;;;;;;20.83;5.60;;;;;;;-1.38;100.00;98519.66;5055202;28;20033;-73
2023/01/17 04:38:35;;;;;;;20.35;5.15;;;;;;;-1.45;100.00;98518.66;5055537;28;20021;-73
2023/01/17 04:41:00;;;;;;;21.00;4.90;;;;;;;-1.37;100.00;98525.69;5055202;28;20542;-87
2023/01/17 04:43:26;;;;;;;19.63;5.28;;;;;;;-1.42;100.00;98529.09;5055280;28;20103;-74
2023/01/17 04:45:55;;;;;;;19.60;5.07;;;;;;;-1.47;100.00;98522.97;5055489;28;20025;-74
2023/01/17 04:48:20;;;;;;;20.77;5.03;;;;;;;-1.49;100.00;98521.19;5055089;28;20535;-74
2023/01/17 04:50:46;;;;;;;20.40;4.85;;;;;;;-1.50;100.00;98520.34;5055074;28;20128;-74
2023/01/17 04:53:11;;;;;;;19.20;5.20;;;;;;;-1.51;100.00;98528.94;5037354;28;20025;-74
2023/01/17 04:55:36;;;;;;;19.55;4.82;;;;;;;-1.48;100.00;98530.72;5055009;28;20021;-74
2023/01/17 04:58:02;;;;;;;20.35;5.40;;;;;;;-1.39;100.00;98536.03;5054980;28;20365;-73
2023/01/17 05:00:27;;;;;;;19.88;5.70;;;;;;;-1.35;100.00;98534.38;5055090;28;20380;-74
2023/01/17 05:02:53;;;;;;;21.35;6.32;;;;;;;-1.38;100.00;98535.22;5054958;28;20391;-74
2023/01/17 05:05:18;;;;;;;23.08;7.32;;;;;;;-1.37;100.00;98533.47;5055067;28;20441;-74
2023/01/17 05:07:52;;;;;;;23.15;8.65;;;;;;;-1.35;100.00;98540.44;5055334;28;20025;-74
2023/01/17 05:10:17;;;;;;;26.13;9.65;;;;;;;-1.38;100.00;98529.13;5054828;28;20504;-74
2023/01/17 05:12:42;;;;;;;27.45;9.98;;;;;;;-1.38;100.00;98537.81;5054923;28;20029;-74
2023/01/17 05:15:08;;;;;;;28.75;11.70;;;;;;;-1.40;100.00;98529.09;5037196;28;20393;-74
2023/01/17 05:17:33;;;;;;;32.17;13.15;;;;;;;-1.39;100.00;98537.78;5054671;28;20055;-74
2023/01/17 05:19:59;;;;;;;31.08;13.95;;;;;;;-1.39;100.00;98535.19;5053632;28;20036;-74
2023/01/17 05:22:24;;;;;;;31.10;14.10;;;;;;;-1.44;100.00;98538.56;5054575;28;20502;-74
2023/01/17 05:24:49;;;;;;;32.00;14.82;;;;;;;-1.51;100.00;98539.31;5054516;28;20468;-75
2023/01/17 05:27:15;;;;;;;33.45;16.05;;;;;;;-1.46;100.00;98540.25;5054616;28;20028;-74
2023/01/17 05:29:40;;;;;;;34.58;15.27;;;;;;;-1.48;100.00;98536.78;5054395;28;20025;-73
2023/01/17 05:32:06;;;;;;;33.55;16.27;;;;;;;-1.57;100.00;98536.63;5054323;28;20033;-74
2023/01/17 05:34:31;;;;;;;34.20;15.55;;;;;;;-1.55;100.00;98534.06;5054309;28;20029;-74
2023/01/17 05:36:57;;;;;;;32.42;15.60;;;;;;;-1.59;100.00;98535.72;5054203;28;20476;-74
2023/01/17 05:39:23;;;;;;;33.70;16.02;;;;;;;-1.64;100.00;98537.38;5054541;28;20047;-74
2023/01/17 05:41:48;;;;;;;31.65;15.00;;;;;;;-1.67;100.00;98548.56;5054537;28;20041;-75
2023/01/17 05:44:16;;;;;;;32.35;14.73;;;;;;;-1.67;100.00;98545.09;5054199;28;20025;-73
2023/01/17 05:46:42;;;;;;;31.60;14.30;;;;;;;-1.68;100.00;98554.59;5054025;28;20104;-74
2023/01/17 05:49:07;;;;;;;30.08;13.82;;;;;;;-1.68;100.00;98556.31;5054209;28;20120;-73
2023/01/17 05:51:36;;;;;;;30.08;13.23;;;;;;;-1.64;100.00;98563.28;5054191;28;20028;-74
2023/01/17 05:54:03;;;;;;;29.10;12.95;;;;;;;-1.66;100.00;98563.28;5053947;28;20087;-74
2023/01/17 05:56:28;;;;;;;29.90;12.70;;;;;;;-1.66;100.00;98565.88;5054362;28;20036;-73
2023/01/17 05:58:53;;;;;;;28.15;12.40;;;;;;;-1.66;100.00;98565.88;5053801;28;20028;-74
2023/01/17 06:01:19;;;;;;;30.20;13.90;;;;;;;-1.65;100.00;98561.53;5053727;28;20033;-76
2023/01/17 06:03:44;;;;;;;34.60;16.52;;;;;;;-1.68;100.00;98561.50;5053921;28;20056;-74
2023/01/17 06:06:09;;;;;;;35.45;17.40;;;;;;;-1.67;100.00;98568.44;5053697;28;20028;-74
2023/01/17 06:08:35;;;;;;;34.35;18.05;;;;;;;-1.73;100.00;98564.00;5054104;28;20033;-74
2023/01/17 06:11:00;;;;;;;39.50;19.88;;;;;;;-1.73;100.00;98568.28;5053508;28;20052;-73
2023/01/17 06:13:25;;;;;;;37.33;19.90;;;;;;;-1.73;100.00;98558.81;5035674;28;20079;-74
2023/01/17 06:15:51;;;;;;;39.20;22.52;;;;;;;-1.76;100.00;98557.06;5053837;28;20021;-74
2023/01/17 06:18:17;;;;;;;39.60;23.00;;;;;;;-1.80;100.00;98563.03;5053440;28;20373;-74
2023/01/17 06:20:43;;;;;;;41.55;23.77;;;;;;;-1.85;100.00;98564.66;5053311;28;20063;-74
2023/01/17 06:23:13;;;;;;;41.90;23.38;;;;;;;-1.88;100.00;98572.38;5053485;28;20032;-88
2023/01/17 06:25:43;;;;;;;43.88;24.67;;;;;;;-1.87;100.00;98576.72;5053739;28;20423;-83
2023/01/17 06:28:10;;;;;;;41.45;24.80;;;;;;;-1.88;100.00;98572.38;5053290;28;20063;-74
2023/01/17 06:30:35;;;;;;;41.65;24.33;;;;;;;-1.89;100.00;98575.81;5053190;28;20068;-75
2023/01/17 06:33:02;;;;;;;43.22;25.23;;;;;;;-1.88;100.00;98577.53;5053234;28;20109;-74
2023/01/17 06:35:28;;;;;;;40.22;23.95;;;;;;;-1.95;100.00;98578.31;5049928;28;20033;-78
2023/01/17 06:37:54;;;;;;;43.20;24.92;;;;;;;-1.98;100.00;98573.03;5056098;28;20039;-77
2023/01/17 06:40:26;;;;;;;42.35;25.88;;;;;;;-2.04;100.00;98578.13;5057794;28;20116;-77
2023/01/17 06:42:52;;;;;;;39.55;24.27;;;;;;;-2.05;100.00;98586.72;5048658;28;20025;-76
2023/01/17 06:45:18;;;;;;;40.30;24.55;;;;;;;-2.10;100.00;98589.22;5052616;28;20039;-76
2023/01/17 06:47:43;;;;;;;41.83;24.50;;;;;;;-2.15;100.00;98578.78;5055292;28;20036;-78
2023/01/17 06:50:12;;;;;;;44.17;25.20;;;;;;;-2.16;100.00;98582.22;5052118;28;20033;-77
2023/01/17 06:52:41;;;;;;;43.58;25.02;;;;;;;-2.18;100.00;98583.06;5054582;28;20151;-77
2023/01/17 06:55:08;;;;;;;39.80;24.58;;;;;;;-2.17;100.00;98588.25;5037630;28;20392;-77
2023/01/17 06:57:34;;;;;;;40.53;25.13;;;;;;;-2.22;100.00;98584.69;5051240;28;20033;-78
2023/01/17 06:59:59;;;;;;;40.13;24.40;;;;;;;-2.25;100.00;98582.03;5055564;28;20028;-77
2023/01/17 07:02:25;;;;;;;41.45;25.17;;;;;;;-2.28;100.00;98584.56;5052783;28;20033;-77
2023/01/17 07:04:50;;;;;;;43.25;25.25;;;;;;;-2.36;100.00;98575.78;5051408;28;20053;-77
2023/01/17 07:07:15;;;;;;;40.50;25.42;;;;;;;-2.37;100.00;98584.41;5017923;28;20063;-77
2023/01/17 07:09:41;;;;;;;44.15;25.95;;;;;;;-2.32;100.00;98587.94;5033948;28;20531;-77
2023/01/17 07:12:06;;;;;;;42.63;25.08;;;;;;;-2.34;100.00;98587.06;5053947;28;20025;-77
2023/01/17 07:14:32;;;;;;;43.30;25.38;;;;;;;-2.37;100.00;98579.22;5054485;28;20476;-75
2023/01/17 07:16:57;;;;;;;44.33;26.35;;;;;;;-2.46;100.00;98573.00;5036850;28;20120;-76
2023/01/17 07:19:23;;;;;;;43.97;25.92;;;;;;;-2.44;100.00;98587.72;5035470;28;20033;-77
2023/01/17 07:21:52;;;;;;;43.30;26.27;;;;;;;-2.44;100.00;98591.16;5054795;28;20422;-75
2023/01/17 07:24:19;;;;;;;43.65;25.90;;;;;;;-2.45;100.00;98589.41;5049671;28;20029;-76
2023/01/17 07:26:49;;;;;;;44.05;26.50;;;;;;;-2.44;100.00;98596.34;5051625;28;20028;-76
2023/01/17 07:29:14;;;;;;;43.92;26.15;;;;;;;-2.44;100.00;98596.34;5052534;28;20021;-76
2023/01/17 07:31:40;;;;;;;43.42;27.90;;;;;;;-2.49;100.00;98593.66;5054334;28;20438;-76
2023/01/17 07:34:06;;;;;;;43.38;26.20;;;;;;;-2.47;100.00;98594.56;5036514;28;20108;-76
2023/01/17 07:36:32;;;;;;;43.90;26.77;;;;;;;-2.48;100.00;98602.28;5053467;28;20802;-77
2023/01/17 07:38:57;;;;;;;44.58;26.90;;;;;;;-2.47;100.00;98604.03;5051740;28;20178;-78
2023/01/17 07:41:22;;;;;;;45.95;26.27;;;;;;;-2.45;100.00;98594.59;5053545;28;20037;-78
2023/01/17 07:43:48;;;;;;;43.78;26.38;;;;;;;-2.46;100.00;98596.31;5053819;28;20384;-77
2023/01/17 07:46:16;;;;;;;45.75;27.48;;;;;;;-2.46;100.00;98600.63;5038314;28;20096;-76
2023/01/17 07:48:41;;;;;;;45.58;27.05;;;;;;;-2.47;100.00;98610.06;5056418;28;20028;-78
2023/01/17 07:51:08;;;;;;;45.92;27.25;;;;;;;-2.44;100.00;98605.81;5055707;28;20499;-78
2023/01/17 07:53:34;;;;;;;46.05;28.38;;;;;;;-2.44;100.00;98608.41;5054811;28;20498;-75
2023/01/17 07:56:01;;;;;;;48.42;28.83;;;;;;;-2.46;100.00;98613.56;5039521;28;20040;-77
2023/01/17 07:58:27;;;;;;;44.97;27.42;;;;;;;-2.46;100.00;98608.38;5055481;28;20079;-78
2023/01/17 08:00:53;;;;;;;49.50;28.33;;;;;;;-2.44;100.00;98604.09;5056461;28;20108;-76
2023/01/17 08:03:18;;;;;;;48.65;29.02;;;;;;;-2.43;100.00;98605.84;5038920;28;20032;-76
2023/01/17 08:05:53;;;;;;;44.30;28.30;;;;;;;-2.39;100.00;98605.06;5039318;28;20055;-76
2023/01/17 08:08:18;;;;;;;46.63;28.88;;;;;;;-2.37;100.00;98608.56;5056929;28;20487;-76
2023/01/17 08:10:44;;;;;;;49.42;29.35;;;;;;;-2.35;100.00;98604.28;5057776;28;20060;-76
2023/01/17 08:13:09;;;;;;;49.50;30.73;;;;;;;-2.32;100.00;98603.47;5058346;28;20037;-76
2023/01/17 08:15:35;;;;;;;48.40;29.65;;;;;;;-2.30;100.00;98609.53;5036292;28;20507;-76
2023/01/17 08:18:00;;;;;;;50.00;31.05;;;;;;;-2.22;100.00;98609.72;5054375;28;20516;-76
2023/01/17 08:20:25;;;;;;;49.70;31.05;;;;;;;-2.21;100.00;98599.38;5055419;28;20542;-85
2023/01/17 08:22:55;;;;;;;47.80;30.00;;;;;;;-2.12;100.00;98616.81;5054850;28;20535;-76
2023/01/17 08:25:22;;;;;;;50.33;31.08;;;;;;;-2.07;100.00;98616.91;5057411;28;20033;-76
2023/01/17 08:27:47;;;;;;;49.85;30.92;;;;;;;-2.12;100.00;98611.63;5054867;28;20041;-78
2023/01/17 08:30:13;;;;;;;48.45;30.33;;;;;;;-2.07;100.00;98619.50;5056106;28;20062;-77
2023/01/17 08:32:39;;;;;;;49.17;30.13;;;;;;;-2.05;100.00;98615.19;5054650;28;20037;-79
2023/01/17 08:35:06;;;;;;;46.22;29.38;;;;;;;-2.03;100.00;98622.16;5039949;28;20476;-77
2023/01/17 08:37:31;;;;;;;48.30;30.15;;;;;;;-2.03;100.00;98621.31;5058262;28;20029;-76
2023/01/17 08:39:57;;;;;;;46.58;30.17;;;;;;;-2.02;100.00;98623.91;5038177;28;20036;-78
2023/01/17 08:42:22;;;;;;;47.17;30.63;;;;;;;-1.95;100.00;98630.09;5054207;28;20033;-76
2023/01/17 08:44:48;;;;;;;49.08;29.55;;;;;;;-1.91;100.00;98626.69;5056994;28;20025;-76
2023/01/17 08:47:13;;;;;;;48.17;30.13;;;;;;;-1.88;100.00;98624.16;5058003;28;20415;-75
2023/01/17 08:49:39;;;;;;;45.58;29.40;;;;;;;-1.88;100.00;98625.91;5020538;28;20413;-75
2023/01/17 08:52:04;;;;;;;47.80;28.95;;;;;;;-1.90;100.00;98625.88;5059347;28;20029;-76
2023/01/17 08:54:30;;;;;;;48.25;28.42;;;;;;;-1.90;100.00;98620.69;5035341;28;20041;-76
2023/01/17 08:56:55;;;;;;;46.58;28.83;;;;;;;-1.84;100.00;98625.13;5055142;28;20025;-76
2023/01/17 08:59:21;;;;;;;45.03;28.85;;;;;;;-1.79;100.00;98626.94;5036437;28;20032;-76
2023/01/17 09:01:46;;;;;;;46.03;29.52;;;;;;;-1.76;100.00;98626.13;5056751;28;20033;-76
2023/01/17 09:04:12;;;;;;;47.45;29.83;;;;;;;-1.68;100.00;98631.44;5053774;28;20033;-90
2023/01/17 09:06:40;;;;;;;47.70;29.88;;;;;;;-1.63;100.00;98634.97;5039210;28;20032;-87
2023/01/17 09:09:06;;;;;;;45.03;29.75;;;;;;;-1.57;100.00;98632.53;5057894;28;20031;-76
2023/01/17 09:11:32;;;;;;;43.25;27.85;;;;;;;-1.52;100.00;98633.47;5056501;28;20629;-89
2023/01/17 09:13:58;;;;;;;47.13;29.58;;;;;;;-1.43;100.00;98636.22;5054506;28;20040;-77
2023/01/17 09:16:24;;;;;;;44.78;28.02;;;;;;;-1.33;100.00;98632.06;5054873;28;20025;-91
2023/01/17 09:18:55;;;;;;;43.90;28.63;;;;;;;-1.14;100.00;98642.72;5054672;28;20032;-76
2023/01/17 09:21:22;;;;;;;45.80;28.77;;;;;;;-1.02;100.00;98642.94;5054401;28;20025;-91
2023/01/17 09:23:47;;;;;;;43.85;28.50;;;;;;;-0.77;100.00;98639.00;5054725;28;20092;-77
2023/01/17 09:26:24;;;;;;;40.38;27.33;;;;;;;-0.58;100.00;98639.25;5036595;28;20474;-75
2023/01/17 09:28:50;;;;;;;40.13;24.60;;;;;;;-0.37;100.00;98643.84;5049981;28;20032;-76
2023/01/17 09:31:17;;;;;;;36.58;22.90;;;;;;;-0.23;100.00;98641.44;5038761;28;20029;-81
2023/01/17 09:33:42;;;;;;;33.05;19.90;;;;;;;-0.27;100.00;98650.06;5054768;28;20083;-77
2023/01/17 09:36:09;;;;;;;32.40;19.33;;;;;;;-0.33;100.00;98645.66;5038835;28;20025;-77
2023/01/17 09:38:35;;;;;;;30.15;18.33;;;;;;;-0.32;100.00;98649.09;5018904;28;20082;-75
2023/01/17 09:41:01;;;;;;;31.67;18.27;;;;;;;-0.14;100.00;98646.75;5055306;28;20060;-77
2023/01/17 09:43:42;;;;;;;29.88;17.50;;;;;;;0.24;100.00;98645.44;5037509;28;20090;-84
2023/01/17 09:46:21;;;;;;;27.77;15.70;;;;;;;0.61;100.00;98648.41;5052079;28;20573;-85
2023/01/17 09:48:55;;;;;;;28.27;15.13;;;;;;;0.52;100.00;98644.00;5052979;28;20111;-86
2023/01/17 09:51:23;;;;;;;26.50;14.48;;;;;;;0.50;100.00;98646.56;5036272;28;20029;-76
2023/01/17 09:53:49;;;;;;;25.92;13.85;;;;;;;0.68;100.00;98648.50;5052941;28;20407;-88
2023/01/17 09:56:20;;;;;;;25.35;13.73;;;;;;;0.68;100.00;98652.81;5053604;28;20113;-88
2023/01/17 09:58:53;;;;;;;25.77;14.18;;;;;;;0.72;100.00;98656.31;5050892;28;20110;-76
2023/01/17 10:01:19;;;;;;;26.70;13.30;;;;;;;0.67;100.00;98656.25;5053208;28;20025;-75
2023/01/17 10:03:47;;;;;;;25.92;13.43;;;;;;;0.60;100.00;98659.69;5058040;28;20108;-75
2023/01/17 10:06:29;;;;;;;24.85;13.25;;;;;;;0.70;100.00;98661.53;5054145;28;20135;-85
2023/01/17 10:09:15;;;;;;;26.98;13.57;;;;;;;0.69;100.00;98662.38;5053501;28;20039;-75
2023/01/17 10:12:03;;;;;;;25.38;12.77;;;;;;;0.63;100.00;98660.56;5055690;28;20048;-75
2023/01/17 10:14:40;;;;;;;26.15;13.15;;;;;;;0.56;100.00;98657.91;5054354;28;20464;-91
2023/01/17 10:17:42;;;;;;;25.52;13.27;;;;;;;0.56;100.00;98658.78;5054774;28;20032;-75
2023/01/17 10:20:38;;;;;;;27.15;13.63;;;;;;;0.64;100.00;98664.03;5055405;28;20036;-75
2023/01/17 10:23:16;;;;;;;25.30;13.13;;;;;;;0.98;100.00;98665.22;5053432;28;20068;-75
2023/01/17 10:25:45;;;;;;;25.08;13.38;;;;;;;1.36;100.00;98661.16;5048494;28;20522;-76
2023/01/17 10:28:15;;;;;;;25.67;13.48;;;;;;;1.64;100.00;98661.31;5054847;28;20104;-78
2023/01/17 10:30:48;;;;;;;23.92;12.73;;;;;;;1.85;100.00;98665.75;5051885;28;20020;-78
2023/01/17 10:33:39;;;;;;;23.92;11.40;;;;;;;1.65;100.00;98663.06;5051000;28;20020;-76
2023/01/17 10:36:11;;;;;;;24.25;11.32;;;;;;;1.54;100.00;98665.59;5030943;28;20499;-75
2023/01/17 10:38:38;;;;;;;24.33;11.80;;;;;;;1.65;100.00;98658.72;5052035;28;20040;-76
2023/01/17 10:41:13;;;;;;;24.02;11.35;;;;;;;1.68;100.00;98658.75;5055779;28;20067;-75
2023/01/17 10:43:56;;;;;;;23.60;10.77;;;;;;;1.68;100.00;98663.94;5051832;28;20391;-76
2023/01/17 10:46:27;;;;;;;24.05;10.70;;;;;;;1.52;100.00;98672.53;5050469;28;20033;-75
2023/01/17 10:48:53;;;;;;;24.42;11.07;;;;;;;1.38;100.00;98681.16;5051601;28;20039;-75
2023/01/17 10:51:31;;;;;;;23.20;11.25;;;;;;;1.42;100.00;98675.97;5052270;28;20032;-75
2023/01/17 10:54:18;;;;;;;26.63;11.77;;;;;;;1.66;100.00;98673.50;5052604;28;20083;-75
2023/01/17 10:56:43;;;;;;;23.15;11.00;;;;;;;2.95;100.00;98672.16;5034703;28;20447;-75
2023/01/17 10:59:20;;;;;;;24.17;10.63;;;;;;;4.94;100.00;98670.59;5052123;28;20068;-74
2023/01/17 11:01:45;;;;;;;22.77;9.68;;;;;;;5.36;100.00;98665.91;5057144;28;20033;-74
2023/01/17 11:04:35;;;;;;;21.42;8.60;;;;;;;4.95;100.00;98673.22;5051998;28;20083;-74
2023/01/17 11:07:24;;;;;;;21.58;9.23;;;;;;;4.01;100.00;98671.97;5055487;28;20707;-75
2023/01/17 11:09:53;;;;;;;22.35;9.23;;;;;;;3.88;100.00;98669.41;5051647;28;20066;-75
2023/01/17 11:12:21;;;;;;;23.08;9.45;;;;;;;4.38;100.00;98664.84;5034157;28;20484;-74
2023/01/17 11:15:21;;;;;;;21.83;9.15;;;;;;;6.04;100.00;98662.56;5034449;28;20047;-75
2023/01/17 11:18:00;;;;;;;21.15;8.57;;;;;;;6.99;100.00;98652.53;5033904;28;20021;-74
2023/01/17 11:20:37;;;;;;;21.27;8.90;;;;;;;7.48;100.00;98658.69;5050190;28;20071;-74
2023/01/17 11:23:06;;;;;;;22.13;8.23;;;;;;;7.79;100.00;98656.38;5052297;28;20392;-75
2023/01/17 11:25:33;;;;;;;21.17;8.05;;;;;;;7.93;100.00;98657.88;5052575;28;20107;-74
2023/01/17 11:28:29;;;;;;;21.35;7.82;;;;;;;7.30;100.00;98659.88;5052369;28;20029;-74
2023/01/17 11:30:59;;;;;;;20.80;8.10;;;;;;;6.99;100.00;98657.78;5050009;28;20433;-74
2023/01/17 11:33:43;;;;;;;20.13;7.07;;;;;;;7.59;100.00;98656.75;5052278;28;20040;-74
2023/01/17 11:36:24;;;;;;;21.48;8.07;;;;;;;8.50;100.00;98646.19;5052243;28;20060;-76
2023/01/17 11:39:16;;;;;;;20.80;7.28;;;;;;;8.25;100.00;98654.56;5049103;28;20396;-74
2023/01/17 11:41:41;;;;;;;19.42;6.78;;;;;;;8.10;100.00;98649.66;5048036;28;20051;-73
2023/01/17 11:44:19;;;;;;;18.98;6.88;;;;;;;8.81;100.00;98656.91;5052492;28;20398;-74
2023/01/17 11:46:44;;;;;;;19.33;6.80;;;;;;;9.41;100.00;98636.97;5048557;28;20025;-73
2023/01/17 11:49:21;;;;;;;20.35;6.40;;;;;;;8.72;100.00;98639.53;5052222;28;20432;-76
2023/01/17 11:51:47;;;;;;;19.38;7.15;;;;;;;7.76;100.00;98639.78;5045137;28;20036;-77
2023/01/17 11:54:23;;;;;;;21.42;7.18;;;;;;;7.18;100.00;98649.56;5032652;28;20037;-77
2023/01/17 11:56:56;;;;;;;18.77;6.30;;;;;;;6.83;100.00;98632.63;5050573;28;20107;-78
2023/01/17 11:59:25;;;;;;;19.58;6.72;;;;;;;7.21;100.00;98634.63;5031677;28;20064;-78
2023/01/17 12:02:21;;;;;;;20.55;7.10;;;;;;;8.14;100.00;98638.13;5053461;28;20029;-78
2023/01/17 12:05:00;;;;;;;19.05;6.43;;;;;;;9.70;100.00;98632.69;5048729;28;20033;-77
2023/01/17 12:07:50;;;;;;;19.83;6.20;;;;;;;10.88;100.00;98627.50;5051656;28;20396;-78
2023/01/17 12:10:21;;;;;;;20.88;6.20;;;;;;;10.77;100.00;98633.09;5047898;28;20401;-79
2023/01/17 12:15:58;;;;;;;20.45;6.47;;;;;;;10.93;85.43;98625.56;5058036;28;20094;-77
2023/01/17 12:18:52;;;;;;;18.85;6.53;;;;;;;11.19;86.76;98641.50;5051150;28;20485;-77
2023/01/17 12:21:41;;;;;;;18.85;6.57;;;;;;;10.78;82.90;98637.50;5031974;28;20033;-83
2023/01/17 12:24:43;;;;;;;18.77;6.32;;;;;;;11.32;80.88;98638.38;5050954;28;20419;-76
2023/01/17 12:27:42;;;;;;;17.83;4.82;;;;;;;11.54;77.48;98628.88;5050903;28;20033;-87
2023/01/17 12:30:10;;;;;;;17.58;5.53;;;;;;;11.25;63.03;98633.34;5053235;28;20025;-83
2023/01/17 12:32:52;;;;;;;13.52;4.03;;;;;;;11.49;59.11;98621.94;5054870;28;20548;-80
2023/01/17 12:35:25;;;;;;;17.38;4.85;;;;;;;11.44;50.80;98629.16;5057036;28;20394;-89
2023/01/17 12:38:00;;;;;;;14.85;4.68;;;;;;;12.50;54.92;98626.28;5053800;28;20083;-80
2023/01/17 12:40:32;;;;;;;15.45;4.40;;;;;;;13.02;46.79;98626.00;5035841;28;20029;-74
2023/01/17 12:43:26;;;;;;;16.17;4.77;;;;;;;13.27;54.37;98612.56;5054120;28;20033;-74
2023/01/17 12:45:53;;;;;;;16.02;4.70;;;;;;;13.04;46.66;98617.03;5050138;28;20057;-88
2023/01/17 12:48:20;;;;;;;17.15;5.25;;;;;;;13.82;47.20;98619.09;5055013;28;20025;-74
2023/01/17 12:50:56;;;;;;;15.82;4.50;;;;;;;13.81;46.35;98625.34;5055261;28;20029;-80
2023/01/17 12:53:33;;;;;;;12.70;3.47;;;;;;;14.13;43.61;98618.59;5054920;28;20020;-82
2023/01/17 12:56:10;;;;;;;15.70;3.95;;;;;;;14.50;44.53;98622.19;5054942;28;20102;-82
2023/01/17 12:58:42;;;;;;;14.07;3.80;;;;;;;14.45;39.87;98619.75;5054986;28;20040;-89